Ilgaz — TCHQ — position and weather

sailwx.info

Track history (hours):
 
Tides and Currents Weather Stations Pressure Air Temp Water Temp Dewpoint Dewpoint Depression Visibility Wind Speed Wind Dir Waves Ship Positions

Ilgaz

Last reported at 2014-Oct-30 19:07 UTC. Time now 2014-Oct-31 07:04 UTC.
Position N 40°44' E 029°44'.

Length 124 m; draft 8.5 m.

Type: Cargo ship. MMSI: 271000215.

Date/timePositionNaut miles runAvg speedWind from/ knotsBaromVisibWave heightAir tempDewpointWater temp
2014-Oct-30 19:07N 40°44' E 029°44'7 9.0
2014-Oct-30 18:20N 40°45' E 029°35'7 9.0
2014-Oct-30 17:33N 40°45' E 029°25'9 8.8
2014-Oct-30 16:33N 40°44' E 029°14'9 8.8
2014-Oct-30 15:33N 40°42' E 029°02'8 8.4
2014-Oct-30 14:33N 40°41' E 028°51'8 7.7
2014-Oct-30 13:30N 40°40' E 028°41'205 5.7
2014-Oct-29 01:25N 37°40' E 026°35'18 8.8
2014-Oct-28 23:21N 37°25' E 026°48'  
Track history (hours):
 
Tides and Currents Weather Stations Pressure Air Temp Water Temp Dewpoint Dewpoint Depression Visibility Wind Speed Wind Dir Waves Ship Positions

Ilgaz

Last reported at 2014-Oct-30 19:07 UTC. Time now 2014-Oct-31 07:04 UTC.
Position N 40°44' E 029°44'.

Length 124 m; draft 8.5 m.

Type: Cargo ship. MMSI: 271000215.

Date/timePositionNaut miles runAvg speedWind from/ knotsBaromVisibWave heightAir tempDewpointWater temp
2014-Oct-30 19:07N 40°44' E 029°44'7 9.0
2014-Oct-30 18:20N 40°45' E 029°35'7 9.0
2014-Oct-30 17:33N 40°45' E 029°25'9 8.8
2014-Oct-30 16:33N 40°44' E 029°14'9 8.8
2014-Oct-30 15:33N 40°42' E 029°02'8 8.4
2014-Oct-30 14:33N 40°41' E 028°51'8 7.7
2014-Oct-30 13:30N 40°40' E 028°41'205 5.7
2014-Oct-29 01:25N 37°40' E 026°35'18 8.8
2014-Oct-28 23:21N 37°25' E 026°48'  

Dump ship's entire track history